sensor_id;sensor_type;location;lat;lon;timestamp;temperature;humidity
47626;DHT22;33342;45.574;9.252;2023-08-01T00:00:17;28.90;60.00
47626;DHT22;33342;45.574;9.252;2023-08-01T00:02:45;28.90;60.00
47626;DHT22;33342;45.574;9.252;2023-08-01T00:05:13;28.90;60.50
47626;DHT22;33342;45.574;9.252;2023-08-01T00:07:40;28.90;59.70
47626;DHT22;33342;45.574;9.252;2023-08-01T00:10:08;28.90;60.00
47626;DHT22;33342;45.574;9.252;2023-08-01T00:12:35;28.90;58.80
47626;DHT22;33342;45.574;9.252;2023-08-01T00:15:03;28.90;59.10
47626;DHT22;33342;45.574;9.252;2023-08-01T00:17:30;28.90;59.40
47626;DHT22;33342;45.574;9.252;2023-08-01T00:19:57;28.80;60.50
47626;DHT22;33342;45.574;9.252;2023-08-01T00:22:24;28.80;61.20
47626;DHT22;33342;45.574;9.252;2023-08-01T00:24:51;28.80;61.40
47626;DHT22;33342;45.574;9.252;2023-08-01T00:27:18;28.80;61.40
47626;DHT22;33342;45.574;9.252;2023-08-01T00:29:45;28.80;61.90
47626;DHT22;33342;45.574;9.252;2023-08-01T00:32:12;28.80;63.00
47626;DHT22;33342;45.574;9.252;2023-08-01T00:34:39;28.70;63.60
47626;DHT22;33342;45.574;9.252;2023-08-01T00:37:06;28.80;64.00
47626;DHT22;33342;45.574;9.252;2023-08-01T00:39:34;28.70;64.30
47626;DHT22;33342;45.574;9.252;2023-08-01T00:42:01;28.70;65.50
47626;DHT22;33342;45.574;9.252;2023-08-01T00:44:28;28.80;66.20
47626;DHT22;33342;45.574;9.252;2023-08-01T00:46:55;28.70;66.10
47626;DHT22;33342;45.574;9.252;2023-08-01T00:49:22;28.70;66.40
47626;DHT22;33342;45.574;9.252;2023-08-01T00:51:49;28.70;66.90
47626;DHT22;33342;45.574;9.252;2023-08-01T00:54:16;28.70;67.00
47626;DHT22;33342;45.574;9.252;2023-08-01T00:56:44;28.70;68.10
47626;DHT22;33342;45.574;9.252;2023-08-01T00:59:12;28.70;68.90
47626;DHT22;33342;45.574;9.252;2023-08-01T01:01:39;28.70;69.30
47626;DHT22;33342;45.574;9.252;2023-08-01T01:04:06;28.60;69.60
47626;DHT22;33342;45.574;9.252;2023-08-01T01:09:20;28.60;71.30
47626;DHT22;33342;45.574;9.252;2023-08-01T01:11:48;28.60;72.10
47626;DHT22;33342;45.574;9.252;2023-08-01T01:14:15;28.60;72.70
47626;DHT22;33342;45.574;9.252;2023-08-01T01:16:42;28.60;73.20
47626;DHT22;33342;45.574;9.252;2023-08-01T01:19:09;28.60;72.90
47626;DHT22;33342;45.574;9.252;2023-08-01T01:21:40;28.50;72.20
47626;DHT22;33342;45.574;9.252;2023-08-01T01:24:29;28.50;71.30
47626;DHT22;33342;45.574;9.252;2023-08-01T01:26:56;28.40;72.30
47626;DHT22;33342;45.574;9.252;2023-08-01T01:29:27;28.40;73.40
47626;DHT22;33342;45.574;9.252;2023-08-01T01:31:54;28.40;72.70
47626;DHT22;33342;45.574;9.252;2023-08-01T01:34:22;28.30;74.80
47626;DHT22;33342;45.574;9.252;2023-08-01T01:36:49;28.30;76.90
47626;DHT22;33342;45.574;9.252;2023-08-01T01:39:16;28.30;76.90
47626;DHT22;33342;45.574;9.252;2023-08-01T01:41:43;28.30;76.40
47626;DHT22;33342;45.574;9.252;2023-08-01T01:44:10;28.20;77.00
47626;DHT22;33342;45.574;9.252;2023-08-01T01:46:37;28.20;77.90
47626;DHT22;33342;45.574;9.252;2023-08-01T01:49:05;28.20;79.60
47626;DHT22;33342;45.574;9.252;2023-08-01T01:51:32;28.10;81.50
47626;DHT22;33342;45.574;9.252;2023-08-01T01:53:59;28.20;82.30
47626;DHT22;33342;45.574;9.252;2023-08-01T01:56:26;28.20;83.00
47626;DHT22;33342;45.574;9.252;2023-08-01T01:58:54;28.10;85.00
47626;DHT22;33342;45.574;9.252;2023-08-01T02:01:21;28.10;87.00
47626;DHT22;33342;45.574;9.252;2023-08-01T02:03:48;28.20;87.80
47626;DHT22;33342;45.574;9.252;2023-08-01T02:06:15;28.10;87.40
47626;DHT22;33342;45.574;9.252;2023-08-01T02:08:43;28.20;87.90
47626;DHT22;33342;45.574;9.252;2023-08-01T02:11:10;28.20;87.80
47626;DHT22;33342;45.574;9.252;2023-08-01T02:13:37;28.20;88.40
47626;DHT22;33342;45.574;9.252;2023-08-01T02:16:04;28.20;88.80
47626;DHT22;33342;45.574;9.252;2023-08-01T02:18:31;28.20;88.50
47626;DHT22;33342;45.574;9.252;2023-08-01T02:20:58;28.20;86.50
47626;DHT22;33342;45.574;9.252;2023-08-01T02:23:25;28.20;87.70
47626;DHT22;33342;45.574;9.252;2023-08-01T02:25:52;28.20;88.60
47626;DHT22;33342;45.574;9.252;2023-08-01T02:28:19;28.20;88.10
47626;DHT22;33342;45.574;9.252;2023-08-01T02:30:46;28.20;87.80
47626;DHT22;33342;45.574;9.252;2023-08-01T02:33:13;28.20;87.60
47626;DHT22;33342;45.574;9.252;2023-08-01T02:35:41;28.20;88.00
47626;DHT22;33342;45.574;9.252;2023-08-01T02:38:08;28.20;89.10
47626;DHT22;33342;45.574;9.252;2023-08-01T02:40:35;28.20;90.10
47626;DHT22;33342;45.574;9.252;2023-08-01T02:43:02;28.20;90.40
47626;DHT22;33342;45.574;9.252;2023-08-01T02:45:29;28.20;90.60
47626;DHT22;33342;45.574;9.252;2023-08-01T02:47:56;28.20;90.70
47626;DHT22;33342;45.574;9.252;2023-08-01T02:50:25;28.20;91.10
47626;DHT22;33342;45.574;9.252;2023-08-01T02:52:52;28.20;91.80
47626;DHT22;33342;45.574;9.252;2023-08-01T02:55:19;28.20;91.90
47626;DHT22;33342;45.574;9.252;2023-08-01T02:57:46;28.20;92.40
47626;DHT22;33342;45.574;9.252;2023-08-01T03:00:13;28.20;92.30
47626;DHT22;33342;45.574;9.252;2023-08-01T03:02:40;28.20;92.70
47626;DHT22;33342;45.574;9.252;2023-08-01T03:05:08;28.20;92.20
47626;DHT22;33342;45.574;9.252;2023-08-01T03:07:35;28.10;92.00
47626;DHT22;33342;45.574;9.252;2023-08-01T03:10:02;28.10;91.80
47626;DHT22;33342;45.574;9.252;2023-08-01T03:12:29;28.10;91.00
47626;DHT22;33342;45.574;9.252;2023-08-01T03:14:56;28.10;89.50
47626;DHT22;33342;45.574;9.252;2023-08-01T03:17:23;28.10;85.50
47626;DHT22;33342;45.574;9.252;2023-08-01T03:19:50;28.00;81.30
47626;DHT22;33342;45.574;9.252;2023-08-01T03:22:17;28.00;78.50
47626;DHT22;33342;45.574;9.252;2023-08-01T03:24:44;28.00;74.50
47626;DHT22;33342;45.574;9.252;2023-08-01T03:27:11;27.90;72.80
47626;DHT22;33342;45.574;9.252;2023-08-01T03:29:38;27.90;70.30
47626;DHT22;33342;45.574;9.252;2023-08-01T03:32:06;27.90;67.80
47626;DHT22;33342;45.574;9.252;2023-08-01T03:34:33;27.90;64.70
47626;DHT22;33342;45.574;9.252;2023-08-01T03:37:00;27.80;61.20
47626;DHT22;33342;45.574;9.252;2023-08-01T03:39:27;27.80;58.10
47626;DHT22;33342;45.574;9.252;2023-08-01T03:41:54;27.70;56.90
47626;DHT22;33342;45.574;9.252;2023-08-01T03:44:21;27.70;56.20
47626;DHT22;33342;45.574;9.252;2023-08-01T03:46:50;27.60;56.30
47626;DHT22;33342;45.574;9.252;2023-08-01T03:49:17;27.60;57.50
47626;DHT22;33342;45.574;9.252;2023-08-01T03:51:45;27.60;58.10
47626;DHT22;33342;45.574;9.252;2023-08-01T03:54:12;27.50;58.20
47626;DHT22;33342;45.574;9.252;2023-08-01T03:56:40;27.50;59.40
47626;DHT22;33342;45.574;9.252;2023-08-01T03:59:13;27.50;60.70
47626;DHT22;33342;45.574;9.252;2023-08-01T04:01:40;27.40;63.60
47626;DHT22;33342;45.574;9.252;2023-08-01T04:04:08;27.40;65.30
47626;DHT22;33342;45.574;9.252;2023-08-01T04:06:35;27.40;67.50
47626;DHT22;33342;45.574;9.252;2023-08-01T04:09:02;27.50;68.80
47626;DHT22;33342;45.574;9.252;2023-08-01T04:11:29;27.40;70.40
47626;DHT22;33342;45.574;9.252;2023-08-01T04:13:57;27.40;71.30
47626;DHT22;33342;45.574;9.252;2023-08-01T04:16:24;27.40;73.40
47626;DHT22;33342;45.574;9.252;2023-08-01T04:18:51;27.40;75.60
47626;DHT22;33342;45.574;9.252;2023-08-01T04:21:18;27.40;77.80
47626;DHT22;33342;45.574;9.252;2023-08-01T04:23:45;27.40;80.20
47626;DHT22;33342;45.574;9.252;2023-08-01T04:26:12;27.40;82.20
47626;DHT22;33342;45.574;9.252;2023-08-01T04:28:39;27.30;84.30
47626;DHT22;33342;45.574;9.252;2023-08-01T04:31:06;27.30;86.10
47626;DHT22;33342;45.574;9.252;2023-08-01T04:33:33;27.30;87.90
47626;DHT22;33342;45.574;9.252;2023-08-01T04:36:00;27.30;90.00
47626;DHT22;33342;45.574;9.252;2023-08-01T04:38:28;27.30;90.60
47626;DHT22;33342;45.574;9.252;2023-08-01T04:40:55;27.30;91.30
47626;DHT22;33342;45.574;9.252;2023-08-01T04:43:22;27.30;92.20
47626;DHT22;33342;45.574;9.252;2023-08-01T04:45:49;27.30;93.20
47626;DHT22;33342;45.574;9.252;2023-08-01T04:48:16;27.20;94.20
47626;DHT22;33342;45.574;9.252;2023-08-01T04:50:44;27.20;95.80
47626;DHT22;33342;45.574;9.252;2023-08-01T04:53:11;27.20;97.00
47626;DHT22;33342;45.574;9.252;2023-08-01T04:55:38;27.20;98.40
47626;DHT22;33342;45.574;9.252;2023-08-01T04:58:05;27.20;99.70
47626;DHT22;33342;45.574;9.252;2023-08-01T05:00:32;27.20;99.90
47626;DHT22;33342;45.574;9.252;2023-08-01T05:02:59;27.20;99.90
47626;DHT22;33342;45.574;9.252;2023-08-01T05:05:26;27.20;99.90
47626;DHT22;33342;45.574;9.252;2023-08-01T05:07:53;27.20;99.90
47626;DHT22;33342;45.574;9.252;2023-08-01T05:10:20;27.20;99.90
47626;DHT22;33342;45.574;9.252;2023-08-01T05:12:47;27.20;99.90
47626;DHT22;33342;45.574;9.252;2023-08-01T05:15:14;27.20;99.90
47626;DHT22;33342;45.574;9.252;2023-08-01T05:17:41;27.20;99.90
47626;DHT22;33342;45.574;9.252;2023-08-01T05:20:08;27.20;99.90
47626;DHT22;33342;45.574;9.252;2023-08-01T05:22:35;27.10;99.90
47626;DHT22;33342;45.574;9.252;2023-08-01T05:25:02;27.10;99.90
47626;DHT22;33342;45.574;9.252;2023-08-01T05:27:31;27.10;99.90
47626;DHT22;33342;45.574;9.252;2023-08-01T05:29:58;27.10;99.90
47626;DHT22;33342;45.574;9.252;2023-08-01T05:32:25;27.10;99.90
47626;DHT22;33342;45.574;9.252;2023-08-01T05:34:52;27.10;99.90
47626;DHT22;33342;45.574;9.252;2023-08-01T05:37:21;27.10;99.90
47626;DHT22;33342;45.574;9.252;2023-08-01T05:39:48;27.10;99.90
47626;DHT22;33342;45.574;9.252;2023-08-01T05:42:14;27.10;99.90
47626;DHT22;33342;45.574;9.252;2023-08-01T05:44:41;27.10;99.90
47626;DHT22;33342;45.574;9.252;2023-08-01T05:47:08;27.10;99.90
47626;DHT22;33342;45.574;9.252;2023-08-01T05:49:36;27.10;99.90
47626;DHT22;33342;45.574;9.252;2023-08-01T05:52:03;27.10;99.90
47626;DHT22;33342;45.574;9.252;2023-08-01T05:54:30;27.10;99.90
47626;DHT22;33342;45.574;9.252;2023-08-01T05:56:57;27.10;99.90
47626;DHT22;33342;45.574;9.252;2023-08-01T05:59:24;27.10;99.90
47626;DHT22;33342;45.574;9.252;2023-08-01T06:01:51;27.10;99.90
47626;DHT22;33342;45.574;9.252;2023-08-01T06:04:18;27.10;99.90
47626;DHT22;33342;45.574;9.252;2023-08-01T06:06:45;27.10;99.90
47626;DHT22;33342;45.574;9.252;2023-08-01T06:09:12;27.10;99.90
47626;DHT22;33342;45.574;9.252;2023-08-01T06:11:39;27.10;99.90
47626;DHT22;33342;45.574;9.252;2023-08-01T06:14:06;27.10;99.90
47626;DHT22;33342;45.574;9.252;2023-08-01T06:16:33;27.10;99.90
47626;DHT22;33342;45.574;9.252;2023-08-01T06:19:00;27.10;99.90
47626;DHT22;33342;45.574;9.252;2023-08-01T06:21:28;27.10;99.90
47626;DHT22;33342;45.574;9.252;2023-08-01T06:23:55;27.10;99.90
47626;DHT22;33342;45.574;9.252;2023-08-01T06:26:22;27.10;99.90
47626;DHT22;33342;45.574;9.252;2023-08-01T06:28:49;27.10;99.90
47626;DHT22;33342;45.574;9.252;2023-08-01T06:31:18;27.20;99.90
47626;DHT22;33342;45.574;9.252;2023-08-01T06:33:45;27.20;99.90
47626;DHT22;33342;45.574;9.252;2023-08-01T06:36:12;27.20;99.90
47626;DHT22;33342;45.574;9.252;2023-08-01T06:38:43;27.30;99.90
47626;DHT22;33342;45.574;9.252;2023-08-01T06:41:10;27.30;99.90
47626;DHT22;33342;45.574;9.252;2023-08-01T06:43:37;27.30;99.90
47626;DHT22;33342;45.574;9.252;2023-08-01T06:46:05;27.30;99.90
47626;DHT22;33342;45.574;9.252;2023-08-01T06:48:32;27.30;99.90
47626;DHT22;33342;45.574;9.252;2023-08-01T06:51:02;27.30;99.90
47626;DHT22;33342;45.574;9.252;2023-08-01T06:53:29;27.20;99.90
47626;DHT22;33342;45.574;9.252;2023-08-01T06:55:56;27.20;99.90
47626;DHT22;33342;45.574;9.252;2023-08-01T06:58:23;27.20;99.90
47626;DHT22;33342;45.574;9.252;2023-08-01T07:00:51;27.10;99.90
47626;DHT22;33342;45.574;9.252;2023-08-01T07:03:18;27.20;99.90
47626;DHT22;33342;45.574;9.252;2023-08-01T07:05:45;27.20;99.90
47626;DHT22;33342;45.574;9.252;2023-08-01T07:08:12;27.20;99.90
47626;DHT22;33342;45.574;9.252;2023-08-01T07:10:39;27.30;99.90
47626;DHT22;33342;45.574;9.252;2023-08-01T07:13:06;27.30;99.90
47626;DHT22;33342;45.574;9.252;2023-08-01T07:15:33;27.30;99.90
47626;DHT22;33342;45.574;9.252;2023-08-01T07:18:00;27.30;99.90
47626;DHT22;33342;45.574;9.252;2023-08-01T07:20:27;27.30;99.90
47626;DHT22;33342;45.574;9.252;2023-08-01T07:22:54;27.40;99.90
47626;DHT22;33342;45.574;9.252;2023-08-01T07:25:21;27.40;99.90
47626;DHT22;33342;45.574;9.252;2023-08-01T07:27:49;27.40;99.90
47626;DHT22;33342;45.574;9.252;2023-08-01T07:30:16;27.40;99.90
47626;DHT22;33342;45.574;9.252;2023-08-01T07:32:43;27.50;99.90
47626;DHT22;33342;45.574;9.252;2023-08-01T07:35:10;27.50;99.90
47626;DHT22;33342;45.574;9.252;2023-08-01T07:37:37;27.60;99.90
47626;DHT22;33342;45.574;9.252;2023-08-01T07:40:05;27.60;97.90
47626;DHT22;33342;45.574;9.252;2023-08-01T07:42:32;27.50;96.20
47626;DHT22;33342;45.574;9.252;2023-08-01T07:44:59;27.50;95.10
47626;DHT22;33342;45.574;9.252;2023-08-01T07:47:26;27.60;95.50
47626;DHT22;33342;45.574;9.252;2023-08-01T07:49:53;27.60;94.90
47626;DHT22;33342;45.574;9.252;2023-08-01T07:52:20;27.60;93.80
47626;DHT22;33342;45.574;9.252;2023-08-01T07:54:47;27.60;91.40
47626;DHT22;33342;45.574;9.252;2023-08-01T07:57:14;27.60;91.10
47626;DHT22;33342;45.574;9.252;2023-08-01T07:59:42;27.60;90.60
47626;DHT22;33342;45.574;9.252;2023-08-01T08:02:09;27.60;89.10
47626;DHT22;33342;45.574;9.252;2023-08-01T08:04:36;27.60;90.60
47626;DHT22;33342;45.574;9.252;2023-08-01T08:07:03;27.60;91.70
47626;DHT22;33342;45.574;9.252;2023-08-01T08:09:30;27.60;92.20
47626;DHT22;33342;45.574;9.252;2023-08-01T08:11:57;27.60;92.40
47626;DHT22;33342;45.574;9.252;2023-08-01T08:14:24;27.60;91.10
47626;DHT22;33342;45.574;9.252;2023-08-01T08:16:51;27.60;89.80
47626;DHT22;33342;45.574;9.252;2023-08-01T08:19:19;27.60;86.80
47626;DHT22;33342;45.574;9.252;2023-08-01T08:21:45;27.60;85.10
47626;DHT22;33342;45.574;9.252;2023-08-01T08:24:12;27.50;85.80
47626;DHT22;33342;45.574;9.252;2023-08-01T08:26:39;27.50;86.90
47626;DHT22;33342;45.574;9.252;2023-08-01T08:29:07;27.50;87.80
47626;DHT22;33342;45.574;9.252;2023-08-01T08:31:35;27.50;90.60
47626;DHT22;33342;45.574;9.252;2023-08-01T08:34:02;27.50;92.30
47626;DHT22;33342;45.574;9.252;2023-08-01T08:36:29;27.50;92.50
47626;DHT22;33342;45.574;9.252;2023-08-01T08:38:56;27.60;92.60
47626;DHT22;33342;45.574;9.252;2023-08-01T08:41:26;27.50;92.20
47626;DHT22;33342;45.574;9.252;2023-08-01T08:43:55;27.60;92.70
47626;DHT22;33342;45.574;9.252;2023-08-01T08:46:24;27.60;92.30
47626;DHT22;33342;45.574;9.252;2023-08-01T08:48:55;27.60;93.20
47626;DHT22;33342;45.574;9.252;2023-08-01T08:51:23;27.60;93.70
47626;DHT22;33342;45.574;9.252;2023-08-01T08:53:53;27.60;92.90
47626;DHT22;33342;45.574;9.252;2023-08-01T08:56:21;27.60;93.80
47626;DHT22;33342;45.574;9.252;2023-08-01T08:58:49;27.60;93.70
47626;DHT22;33342;45.574;9.252;2023-08-01T09:01:17;27.60;93.50
47626;DHT22;33342;45.574;9.252;2023-08-01T09:03:44;27.60;93.50
47626;DHT22;33342;45.574;9.252;2023-08-01T09:06:18;27.50;93.40
47626;DHT22;33342;45.574;9.252;2023-08-01T09:09:09;27.50;93.40
47626;DHT22;33342;45.574;9.252;2023-08-01T09:11:41;27.60;92.90
47626;DHT22;33342;45.574;9.252;2023-08-01T09:14:09;27.60;92.20
47626;DHT22;33342;45.574;9.252;2023-08-01T09:16:36;27.50;91.30
47626;DHT22;33342;45.574;9.252;2023-08-01T09:19:05;27.60;91.30
47626;DHT22;33342;45.574;9.252;2023-08-01T09:21:33;27.50;91.60
47626;DHT22;33342;45.574;9.252;2023-08-01T09:24:09;27.50;91.90
47626;DHT22;33342;45.574;9.252;2023-08-01T09:26:36;27.50;92.40
47626;DHT22;33342;45.574;9.252;2023-08-01T09:29:03;27.50;93.00
47626;DHT22;33342;45.574;9.252;2023-08-01T09:31:31;27.50;92.60
47626;DHT22;33342;45.574;9.252;2023-08-01T09:33:59;27.50;92.80
47626;DHT22;33342;45.574;9.252;2023-08-01T09:36:26;27.50;92.70
47626;DHT22;33342;45.574;9.252;2023-08-01T09:38:57;27.50;91.60
47626;DHT22;33342;45.574;9.252;2023-08-01T09:41:25;27.50;91.40
47626;DHT22;33342;45.574;9.252;2023-08-01T09:43:52;27.50;92.00
47626;DHT22;33342;45.574;9.252;2023-08-01T09:46:19;27.50;92.40
47626;DHT22;33342;45.574;9.252;2023-08-01T09:48:47;27.50;92.80
47626;DHT22;33342;45.574;9.252;2023-08-01T09:51:14;27.50;93.10
47626;DHT22;33342;45.574;9.252;2023-08-01T09:56:21;27.50;91.90
47626;DHT22;33342;45.574;9.252;2023-08-01T09:58:49;27.60;91.90
47626;DHT22;33342;45.574;9.252;2023-08-01T10:01:17;27.60;91.80
47626;DHT22;33342;45.574;9.252;2023-08-01T10:03:45;27.50;91.90
47626;DHT22;33342;45.574;9.252;2023-08-01T10:06:18;27.50;92.10
47626;DHT22;33342;45.574;9.252;2023-08-01T10:08:47;27.50;92.50
47626;DHT22;33342;45.574;9.252;2023-08-01T10:11:16;27.50;92.40
47626;DHT22;33342;45.574;9.252;2023-08-01T10:13:43;27.50;92.80
47626;DHT22;33342;45.574;9.252;2023-08-01T10:16:11;27.50;93.10
47626;DHT22;33342;45.574;9.252;2023-08-01T10:18:38;27.50;93.20
47626;DHT22;33342;45.574;9.252;2023-08-01T10:21:06;27.50;93.40
47626;DHT22;33342;45.574;9.252;2023-08-01T10:23:34;27.50;93.60
47626;DHT22;33342;45.574;9.252;2023-08-01T10:26:02;27.60;94.40
47626;DHT22;33342;45.574;9.252;2023-08-01T10:28:33;27.60;94.00
47626;DHT22;33342;45.574;9.252;2023-08-01T10:31:34;27.70;93.40
47626;DHT22;33342;45.574;9.252;2023-08-01T10:34:03;27.60;92.80
47626;DHT22;33342;45.574;9.252;2023-08-01T10:36:30;27.70;92.70
47626;DHT22;33342;45.574;9.252;2023-08-01T10:38:59;27.70;92.60
47626;DHT22;33342;45.574;9.252;2023-08-01T10:41:33;27.70;92.60
47626;DHT22;33342;45.574;9.252;2023-08-01T10:44:13;27.80;91.30
47626;DHT22;33342;45.574;9.252;2023-08-01T10:46:47;27.80;90.80
47626;DHT22;33342;45.574;9.252;2023-08-01T10:49:15;27.90;89.90
47626;DHT22;33342;45.574;9.252;2023-08-01T10:51:42;27.80;88.60
47626;DHT22;33342;45.574;9.252;2023-08-01T10:54:20;27.90;88.30
47626;DHT22;33342;45.574;9.252;2023-08-01T10:56:51;28.00;83.10
47626;DHT22;33342;45.574;9.252;2023-08-01T10:59:18;28.00;81.50
47626;DHT22;33342;45.574;9.252;2023-08-01T11:01:47;28.10;77.60
47626;DHT22;33342;45.574;9.252;2023-08-01T11:04:17;28.10;70.10
47626;DHT22;33342;45.574;9.252;2023-08-01T11:06:45;28.10;66.20
47626;DHT22;33342;45.574;9.252;2023-08-01T11:09:26;28.10;62.10
47626;DHT22;33342;45.574;9.252;2023-08-01T11:11:54;28.10;57.80
47626;DHT22;33342;45.574;9.252;2023-08-01T11:14:22;28.10;55.90
47626;DHT22;33342;45.574;9.252;2023-08-01T11:16:50;28.20;55.20
47626;DHT22;33342;45.574;9.252;2023-08-01T11:19:24;28.20;55.20
47626;DHT22;33342;45.574;9.252;2023-08-01T11:21:51;28.20;54.60
47626;DHT22;33342;45.574;9.252;2023-08-01T11:24:19;28.10;51.60
47626;DHT22;33342;45.574;9.252;2023-08-01T11:26:47;28.00;49.80
47626;DHT22;33342;45.574;9.252;2023-08-01T11:29:14;28.00;49.20
47626;DHT22;33342;45.574;9.252;2023-08-01T11:31:51;28.00;50.90
47626;DHT22;33342;45.574;9.252;2023-08-01T11:34:19;28.00;52.10
47626;DHT22;33342;45.574;9.252;2023-08-01T11:36:46;28.00;51.20
47626;DHT22;33342;45.574;9.252;2023-08-01T11:39:13;28.00;50.00
47626;DHT22;33342;45.574;9.252;2023-08-01T11:41:41;28.00;52.30
47626;DHT22;33342;45.574;9.252;2023-08-01T11:44:09;28.00;52.50
47626;DHT22;33342;45.574;9.252;2023-08-01T11:46:38;28.00;51.60
47626;DHT22;33342;45.574;9.252;2023-08-01T11:49:06;28.00;55.70
47626;DHT22;33342;45.574;9.252;2023-08-01T11:51:40;28.00;55.70
47626;DHT22;33342;45.574;9.252;2023-08-01T11:54:08;28.00;55.00
47626;DHT22;33342;45.574;9.252;2023-08-01T11:56:37;28.00;57.60
47626;DHT22;33342;45.574;9.252;2023-08-01T12:01:43;28.10;60.00
47626;DHT22;33342;45.574;9.252;2023-08-01T12:04:10;28.10;57.70
47626;DHT22;33342;45.574;9.252;2023-08-01T12:06:37;28.00;54.70
47626;DHT22;33342;45.574;9.252;2023-08-01T12:09:09;28.00;56.60
47626;DHT22;33342;45.574;9.252;2023-08-01T12:11:36;27.90;55.00
47626;DHT22;33342;45.574;9.252;2023-08-01T12:16:31;27.90;54.20
47626;DHT22;33342;45.574;9.252;2023-08-01T12:18:58;28.00;53.70
47626;DHT22;33342;45.574;9.252;2023-08-01T12:21:28;28.00;54.10
47626;DHT22;33342;45.574;9.252;2023-08-01T12:23:55;28.00;53.30
47626;DHT22;33342;45.574;9.252;2023-08-01T12:26:22;28.00;50.20
47626;DHT22;33342;45.574;9.252;2023-08-01T12:28:50;28.00;47.00
47626;DHT22;33342;45.574;9.252;2023-08-01T12:31:17;28.10;48.60
47626;DHT22;33342;45.574;9.252;2023-08-01T12:33:47;28.10;49.20
47626;DHT22;33342;45.574;9.252;2023-08-01T12:36:15;28.10;48.60
47626;DHT22;33342;45.574;9.252;2023-08-01T12:38:42;28.10;46.60
47626;DHT22;33342;45.574;9.252;2023-08-01T12:41:09;28.20;46.70
47626;DHT22;33342;45.574;9.252;2023-08-01T12:43:36;28.20;49.10
47626;DHT22;33342;45.574;9.252;2023-08-01T12:46:03;28.30;52.90
47626;DHT22;33342;45.574;9.252;2023-08-01T12:48:30;28.30;52.30
47626;DHT22;33342;45.574;9.252;2023-08-01T12:50:57;28.30;47.70
47626;DHT22;33342;45.574;9.252;2023-08-01T12:53:24;28.30;44.70
47626;DHT22;33342;45.574;9.252;2023-08-01T12:55:56;28.30;44.90
47626;DHT22;33342;45.574;9.252;2023-08-01T12:58:23;28.30;41.70
47626;DHT22;33342;45.574;9.252;2023-08-01T13:00:52;28.30;43.20
47626;DHT22;33342;45.574;9.252;2023-08-01T13:03:19;28.30;47.40
47626;DHT22;33342;45.574;9.252;2023-08-01T13:05:46;28.40;53.10
47626;DHT22;33342;45.574;9.252;2023-08-01T13:08:13;28.50;49.80
47626;DHT22;33342;45.574;9.252;2023-08-01T13:10:41;28.50;45.20
47626;DHT22;33342;45.574;9.252;2023-08-01T13:13:08;28.50;42.50
47626;DHT22;33342;45.574;9.252;2023-08-01T13:15:35;28.50;36.90
47626;DHT22;33342;45.574;9.252;2023-08-01T13:18:02;28.60;34.80
47626;DHT22;33342;45.574;9.252;2023-08-01T13:20:29;28.50;35.10
47626;DHT22;33342;45.574;9.252;2023-08-01T13:22:59;28.60;34.50
47626;DHT22;33342;45.574;9.252;2023-08-01T13:25:26;28.60;32.20
47626;DHT22;33342;45.574;9.252;2023-08-01T13:27:53;28.60;32.70
47626;DHT22;33342;45.574;9.252;2023-08-01T13:30:20;28.60;31.90
47626;DHT22;33342;45.574;9.252;2023-08-01T13:32:47;28.60;31.90
47626;DHT22;33342;45.574;9.252;2023-08-01T13:35:14;28.70;29.50
47626;DHT22;33342;45.574;9.252;2023-08-01T13:37:42;28.70;28.00
47626;DHT22;33342;45.574;9.252;2023-08-01T13:40:09;28.60;26.10
47626;DHT22;33342;45.574;9.252;2023-08-01T13:42:39;28.70;25.70
47626;DHT22;33342;45.574;9.252;2023-08-01T13:45:06;28.70;27.00
47626;DHT22;33342;45.574;9.252;2023-08-01T13:47:33;28.70;25.90
47626;DHT22;33342;45.574;9.252;2023-08-01T13:50:00;28.70;24.80
47626;DHT22;33342;45.574;9.252;2023-08-01T13:52:28;28.80;25.20
47626;DHT22;33342;45.574;9.252;2023-08-01T13:54:55;28.80;25.30
47626;DHT22;33342;45.574;9.252;2023-08-01T13:57:22;28.80;25.70
47626;DHT22;33342;45.574;9.252;2023-08-01T13:59:50;28.80;24.60
47626;DHT22;33342;45.574;9.252;2023-08-01T14:02:37;28.80;22.00
47626;DHT22;33342;45.574;9.252;2023-08-01T14:05:04;28.90;21.70
47626;DHT22;33342;45.574;9.252;2023-08-01T14:07:31;28.90;21.70
47626;DHT22;33342;45.574;9.252;2023-08-01T14:10:01;28.90;20.10
47626;DHT22;33342;45.574;9.252;2023-08-01T14:12:28;28.90;17.90
47626;DHT22;33342;45.574;9.252;2023-08-01T14:14:55;28.90;18.60
47626;DHT22;33342;45.574;9.252;2023-08-01T14:17:22;29.00;19.60
47626;DHT22;33342;45.574;9.252;2023-08-01T14:19:49;29.00;19.70
47626;DHT22;33342;45.574;9.252;2023-08-01T14:22:16;29.10;17.20
47626;DHT22;33342;45.574;9.252;2023-08-01T14:24:43;29.10;14.80
47626;DHT22;33342;45.574;9.252;2023-08-01T14:27:10;29.10;13.50
47626;DHT22;33342;45.574;9.252;2023-08-01T14:29:37;29.10;11.80
47626;DHT22;33342;45.574;9.252;2023-08-01T14:32:04;29.10;10.50
47626;DHT22;33342;45.574;9.252;2023-08-01T14:34:32;29.10;9.00
47626;DHT22;33342;45.574;9.252;2023-08-01T14:36:59;29.00;8.30
47626;DHT22;33342;45.574;9.252;2023-08-01T14:39:26;29.10;8.10
47626;DHT22;33342;45.574;9.252;2023-08-01T14:41:53;29.10;8.30
47626;DHT22;33342;45.574;9.252;2023-08-01T14:44:31;29.20;7.70
47626;DHT22;33342;45.574;9.252;2023-08-01T14:46:58;29.30;2.90
47626;DHT22;33342;45.574;9.252;2023-08-01T14:49:25;29.30;1.00
47626;DHT22;33342;45.574;9.252;2023-08-01T14:51:56;29.30;1.00
47626;DHT22;33342;45.574;9.252;2023-08-01T14:54:23;29.30;1.00
47626;DHT22;33342;45.574;9.252;2023-08-01T14:57:05;29.30;1.00
47626;DHT22;33342;45.574;9.252;2023-08-01T14:59:32;29.40;1.00
47626;DHT22;33342;45.574;9.252;2023-08-01T15:02:00;29.40;1.00
47626;DHT22;33342;45.574;9.252;2023-08-01T15:04:27;29.40;1.00
47626;DHT22;33342;45.574;9.252;2023-08-01T15:06:54;29.50;1.00
47626;DHT22;33342;45.574;9.252;2023-08-01T15:09:21;29.60;1.00
47626;DHT22;33342;45.574;9.252;2023-08-01T15:11:48;29.60;1.00
47626;DHT22;33342;45.574;9.252;2023-08-01T15:14:15;29.70;1.00
47626;DHT22;33342;45.574;9.252;2023-08-01T15:16:42;29.70;1.00
47626;DHT22;33342;45.574;9.252;2023-08-01T15:19:10;29.80;1.00
47626;DHT22;33342;45.574;9.252;2023-08-01T15:21:37;29.90;1.00
47626;DHT22;33342;45.574;9.252;2023-08-01T15:24:04;29.90;1.00
47626;DHT22;33342;45.574;9.252;2023-08-01T15:26:31;30.10;1.00
47626;DHT22;33342;45.574;9.252;2023-08-01T15:28:58;30.10;1.00
47626;DHT22;33342;45.574;9.252;2023-08-01T15:31:25;30.10;1.00
47626;DHT22;33342;45.574;9.252;2023-08-01T15:33:52;30.20;1.00
47626;DHT22;33342;45.574;9.252;2023-08-01T15:36:25;30.20;1.00
47626;DHT22;33342;45.574;9.252;2023-08-01T15:38:52;30.20;1.00
47626;DHT22;33342;45.574;9.252;2023-08-01T15:41:19;30.30;1.00
47626;DHT22;33342;45.574;9.252;2023-08-01T15:43:46;30.40;1.00
47626;DHT22;33342;45.574;9.252;2023-08-01T15:46:13;30.50;1.00